createdAt,value
2023-03-06T00:03:39.063Z,83.93
2023-03-06T00:08:42.437Z,84.18
2023-03-06T00:13:46.097Z,84.37
2023-03-06T00:18:49.607Z,84.50
2023-03-06T00:23:53.063Z,84.38
2023-03-06T00:28:56.986Z,84.32
2023-03-06T00:34:00.387Z,84.23
2023-03-06T00:39:04.069Z,84.35
2023-03-06T00:44:08.002Z,84.43
2023-03-06T00:49:11.668Z,84.55
2023-03-06T00:54:15.261Z,84.37
2023-03-06T00:59:18.731Z,84.57
2023-03-06T01:04:22.268Z,84.47
2023-03-06T01:09:25.788Z,84.35
2023-03-06T01:14:31.375Z,84.31
2023-03-06T01:19:34.954Z,84.29
2023-03-06T01:24:38.703Z,84.32
2023-03-06T01:29:42.059Z,84.30
2023-03-06T01:34:47.770Z,84.37
2023-03-06T01:39:51.242Z,84.48
2023-03-06T01:45:04.722Z,84.47
2023-03-06T01:50:11.618Z,84.59
2023-03-06T01:55:19.274Z,84.66
2023-03-06T02:00:25.728Z,84.73
2023-03-06T02:05:29.521Z,84.73
2023-03-06T02:10:33.346Z,84.78
2023-03-06T02:15:36.775Z,84.84
2023-03-06T02:20:45.913Z,85.22
2023-03-06T02:25:52.669Z,85.37
2023-03-06T02:30:57.065Z,85.42
2023-03-06T02:36:02.729Z,85.40
2023-03-06T02:41:08.694Z,85.51
2023-03-06T02:46:12.402Z,85.47
2023-03-06T02:51:16.350Z,85.78
2023-03-06T02:56:20.445Z,85.88
2023-03-06T03:01:23.907Z,85.91
2023-03-06T03:06:27.525Z,85.89
2023-03-06T03:11:31.698Z,85.90
2023-03-06T03:16:37.535Z,85.85
2023-03-06T03:21:42.539Z,85.77
2023-03-06T03:26:46.076Z,85.91
2023-03-06T03:31:51.740Z,85.72
2023-03-06T03:36:55.872Z,85.71
2023-03-06T03:41:59.995Z,85.99
2023-03-06T03:47:06.051Z,85.93
2023-03-06T03:52:09.832Z,85.78
2023-03-06T03:57:14.575Z,85.90
2023-03-06T04:02:21.983Z,85.80
2023-03-06T04:07:32.455Z,85.79
2023-03-06T04:12:37.219Z,86.11
2023-03-06T04:17:40.880Z,85.98
2023-03-06T04:22:47.344Z,86.13
2023-03-06T04:27:50.962Z,86.33
2023-03-06T04:32:55.072Z,86.38
2023-03-06T04:38:00.024Z,86.57
2023-03-06T04:43:06.141Z,86.52
2023-03-06T04:48:12.285Z,86.40
2023-03-06T04:53:16.335Z,86.53
2023-03-06T04:58:20.201Z,86.94
2023-03-06T05:03:23.727Z,86.73
2023-03-06T05:08:27.083Z,86.63
2023-03-06T05:13:30.762Z,86.62
2023-03-06T05:18:35.384Z,87.34
2023-03-06T05:23:38.996Z,87.24
2023-03-06T05:28:43.024Z,87.74
2023-03-06T05:33:46.418Z,87.57
2023-03-06T05:38:49.922Z,87.53
2023-03-06T05:43:54.319Z,87.79
2023-03-06T05:48:57.974Z,87.56
2023-03-06T05:54:01.522Z,87.55
2023-03-06T05:59:05.102Z,87.71
2023-03-06T06:04:08.511Z,87.51
2023-03-06T06:09:13.911Z,87.61
2023-03-06T06:14:17.507Z,87.47
2023-03-06T06:19:21.437Z,87.52
2023-03-06T06:24:26.259Z,87.34
2023-03-06T06:29:30.548Z,87.27
2023-03-06T06:34:34.176Z,87.22
2023-03-06T06:39:37.573Z,87.03
2023-03-06T06:44:41.265Z,86.80
2023-03-06T06:49:45.893Z,86.49
2023-03-06T06:54:49.424Z,86.18
2023-03-06T06:59:54.171Z,85.79
2023-03-06T07:05:04.280Z,85.40
2023-03-06T07:10:13.980Z,84.98
2023-03-06T07:15:18.026Z,84.59
2023-03-06T07:20:21.852Z,84.28
2023-03-06T07:25:25.516Z,83.89
2023-03-06T07:30:29.023Z,83.45
2023-03-06T07:35:32.757Z,82.79
2023-03-06T07:40:38.240Z,82.00
2023-03-06T07:45:41.960Z,81.34
2023-03-06T07:50:45.787Z,81.20
2023-03-06T07:55:49.193Z,81.23
2023-03-06T08:00:53.016Z,80.83
2023-03-06T08:06:05.644Z,80.88
2023-03-06T08:11:11.162Z,80.55
2023-03-06T08:16:15.013Z,80.03
2023-03-06T08:21:20.791Z,79.72
2023-03-06T08:26:26.282Z,78.96
2023-03-06T08:31:31.587Z,78.43
2023-03-06T08:36:35.273Z,78.54
2023-03-06T08:41:41.432Z,78.05
2023-03-06T08:46:44.912Z,77.39
2023-03-06T08:51:48.256Z,77.19
2023-03-06T08:56:51.690Z,76.28
2023-03-06T09:01:55.161Z,77.22
2023-03-06T09:07:00.801Z,75.25
2023-03-06T09:12:04.636Z,75.82
2023-03-06T09:17:08.078Z,74.99
2023-03-06T09:22:11.640Z,74.67
2023-03-06T09:27:18.174Z,74.71
2023-03-06T09:32:22.007Z,72.78
2023-03-06T09:37:25.448Z,73.56
2023-03-06T09:42:31.285Z,73.11
2023-03-06T09:47:45.221Z,72.16
2023-03-06T09:53:06.421Z,72.74
2023-03-06T09:58:16.453Z,71.75
2023-03-06T10:03:27.065Z,71.61
2023-03-06T10:08:42.667Z,70.84
2023-03-06T10:13:48.351Z,70.47
2023-03-06T10:18:52.263Z,70.56
2023-03-06T10:24:05.402Z,70.36
2023-03-06T10:29:34.205Z,70.42
2023-03-06T10:34:39.774Z,69.43
2023-03-06T10:39:43.204Z,70.28
2023-03-06T10:44:46.836Z,70.02
2023-03-06T10:49:58.545Z,69.60
2023-03-06T10:55:25.819Z,68.61
2023-03-06T11:00:35.593Z,67.45
2023-03-06T11:05:39.327Z,67.29
2023-03-06T11:10:56.590Z,68.05
2023-03-06T11:16:03.825Z,68.00
2023-03-06T11:21:25.655Z,68.59
2023-03-06T11:26:36.123Z,66.00
2023-03-06T11:31:45.859Z,64.82
2023-03-06T11:36:53.345Z,65.35
2023-03-06T11:42:04.948Z,64.77
2023-03-06T11:47:17.318Z,65.45
2023-03-06T11:52:27.008Z,65.72
2023-03-06T11:57:39.259Z,65.62
2023-03-06T12:03:13.743Z,65.20
2023-03-06T12:08:36.184Z,65.82
2023-03-06T12:13:56.289Z,66.26
2023-03-06T12:19:12.769Z,65.01
2023-03-06T12:24:51.325Z,64.81
2023-03-06T12:30:19.222Z,64.69
2023-03-06T12:35:38.559Z,64.54
2023-03-06T12:40:57.375Z,64.00
2023-03-06T12:46:22.092Z,64.40
2023-03-06T12:51:26.037Z,63.71
2023-03-06T12:56:31.327Z,64.35
2023-03-06T13:01:54.965Z,67.97
2023-03-06T13:07:18.712Z,70.39
2023-03-06T13:12:38.474Z,71.90
2023-03-06T13:17:42.018Z,73.34
2023-03-06T13:22:47.216Z,74.38
2023-03-06T13:28:02.952Z,75.84
2023-03-06T13:33:38.450Z,77.39
2023-03-06T13:39:14.927Z,77.98
2023-03-06T13:44:51.297Z,78.50
2023-03-06T13:49:55.008Z,79.16
2023-03-06T13:55:09.576Z,79.40
2023-03-06T14:00:36.789Z,80.14
2023-03-06T14:05:44.531Z,79.98
2023-03-06T14:10:57.898Z,79.89
2023-03-06T14:16:01.567Z,80.10
2023-03-06T14:21:12.638Z,80.03
2023-03-06T14:26:18.948Z,79.94
2023-03-06T14:31:24.824Z,79.99
2023-03-06T14:36:33.879Z,80.02
2023-03-06T14:41:37.914Z,79.79
2023-03-06T14:46:41.550Z,79.86
2023-03-06T14:51:47.349Z,80.28
2023-03-06T14:56:53.558Z,79.87
2023-03-06T15:02:01.733Z,79.55
2023-03-06T15:07:10.205Z,79.48
2023-03-06T15:12:35.645Z,79.13
2023-03-06T15:17:41.102Z,78.74
2023-03-06T15:22:49.930Z,78.70
2023-03-06T15:27:56.481Z,78.30
2023-03-06T15:33:18.724Z,78.41
2023-03-06T15:38:29.669Z,78.17
2023-03-06T15:43:37.174Z,78.43
2023-03-06T15:48:50.421Z,78.61
2023-03-06T15:53:59.798Z,78.80
2023-03-06T15:59:16.267Z,78.99
2023-03-06T16:04:19.722Z,79.12
2023-03-06T16:09:23.300Z,79.24
2023-03-06T16:14:27.239Z,79.55
2023-03-06T16:19:30.878Z,79.40
2023-03-06T16:24:34.242Z,79.66
2023-03-06T16:29:38.067Z,79.81
2023-03-06T16:34:41.608Z,79.75
2023-03-06T16:39:45.266Z,79.94
2023-03-06T16:44:48.657Z,80.05
2023-03-06T16:49:56.865Z,80.07
2023-03-06T16:55:00.575Z,80.30
2023-03-06T17:00:06.307Z,80.50
2023-03-06T17:05:11.511Z,80.62
2023-03-06T17:10:18.261Z,80.75
2023-03-06T17:15:21.894Z,80.76
2023-03-06T17:20:25.373Z,80.77
2023-03-06T17:25:29.129Z,80.94
2023-03-06T17:30:32.519Z,81.00
2023-03-06T17:35:36.520Z,81.30
2023-03-06T17:40:40.103Z,81.42
2023-03-06T17:45:44.842Z,81.47
2023-03-06T17:50:54.358Z,81.52
2023-03-06T17:55:58.230Z,81.47
2023-03-06T18:01:08.543Z,81.45
2023-03-06T18:06:12.301Z,81.40
2023-03-06T18:11:16.813Z,81.49
2023-03-06T18:16:23.573Z,81.27
2023-03-06T18:21:27.267Z,81.28
2023-03-06T18:26:30.968Z,81.16
2023-03-06T18:31:36.181Z,81.39
2023-03-06T18:36:41.758Z,81.28
2023-03-06T18:41:45.128Z,81.39
2023-03-06T18:46:48.595Z,81.45
2023-03-06T18:51:52.012Z,81.63
2023-03-06T18:56:55.441Z,81.65
2023-03-06T19:01:58.786Z,81.89
2023-03-06T19:07:02.197Z,82.06
2023-03-06T19:12:06.926Z,82.10
2023-03-06T19:17:10.478Z,82.30
2023-03-06T19:22:14.010Z,82.30
2023-03-06T19:27:17.516Z,82.44
2023-03-06T19:32:21.751Z,82.52
2023-03-06T19:37:25.423Z,82.57
2023-03-06T19:42:29.535Z,82.81
2023-03-06T19:47:33.290Z,82.98
2023-03-06T19:52:38.583Z,83.07
2023-03-06T19:57:42.762Z,83.23
2023-03-06T20:02:46.337Z,83.40
2023-03-06T20:07:49.777Z,83.49
2023-03-06T20:12:53.421Z,83.56
2023-03-06T20:17:57.384Z,83.58
2023-03-06T20:23:03.856Z,83.48
2023-03-06T20:28:07.350Z,83.46
2023-03-06T20:33:10.764Z,83.44
2023-03-06T20:38:14.612Z,83.37
2023-03-06T20:43:18.071Z,83.30
2023-03-06T20:48:21.661Z,83.33
2023-03-06T20:53:26.216Z,83.31
2023-03-06T20:58:31.301Z,83.48
2023-03-06T21:03:34.924Z,83.40
2023-03-06T21:08:39.148Z,83.50
2023-03-06T21:13:43.314Z,83.33
2023-03-06T21:18:47.539Z,83.38
2023-03-06T21:23:51.213Z,83.47
2023-03-06T21:28:55.890Z,83.42
2023-03-06T21:34:00.019Z,83.30
2023-03-06T21:39:05.628Z,83.41
2023-03-06T21:44:10.453Z,83.54
2023-03-06T21:49:13.996Z,83.47
2023-03-06T21:54:17.896Z,83.58
2023-03-06T21:59:21.501Z,83.60
2023-03-06T22:04:25.616Z,83.57
2023-03-06T22:09:29.470Z,83.61
2023-03-06T22:14:33.014Z,83.72
2023-03-06T22:19:36.861Z,83.63
2023-03-06T22:24:40.582Z,83.62
2023-03-06T22:29:45.195Z,83.78
2023-03-06T22:34:49.379Z,83.79
2023-03-06T22:39:52.807Z,83.78
2023-03-06T22:44:56.311Z,83.90
2023-03-06T22:49:59.834Z,83.99
2023-03-06T22:55:03.954Z,83.96
2023-03-06T23:00:10.731Z,84.04
2023-03-06T23:05:14.734Z,84.02
2023-03-06T23:10:19.000Z,84.14
2023-03-06T23:15:41.385Z,84.20
2023-03-06T23:21:06.041Z,84.17
2023-03-06T23:26:29.962Z,84.18
2023-03-06T23:31:33.976Z,84.17
2023-03-06T23:36:37.829Z,84.35
2023-03-06T23:41:41.477Z,84.22
2023-03-06T23:46:45.333Z,84.26
2023-03-06T23:51:49.031Z,84.29
2023-03-06T23:56:52.860Z,84.37
